Main page
METAR-TAF:

METAR-TAF

Airports :

RAF Scampton

Scampton, England

latitude: 53-18-27N, longitude: 000-33-03W, elevation: 62 m

Current weather observation

The report was made 55 minutes ago, at 12:50 UTC
Wind 6 kt from the Southwest
Temperature 6°C
Humidity 93%
Pressure 997 hPa
Visibility 10 km or more
Few clouds at a height of 3000 ft
Broken clouds at a height of 15000 ft

METAR: EGXP 131250Z 22006KT 9999 FEW030 BKN150 06/05 Q0997 RMK BLU

Time: 13:45 (13:45 UTC)

Forecast

The report was made 2 hours and 55 minutes ago, at 10:50 UTC
Forecast valid from 13 at 12 UTC to 13 at 18 UTC
Wind 8 kt from the Southwest
Visibility 10 km or more
Few clouds at a height of 1500 ft
Probability 30% :
Temporary
from 13 at 12 UTC to 13 at 14 UTC
Scattered clouds at a height of 1300 ft
Probability 30% :
Temporary
from 13 at 14 UTC to 13 at 17 UTC
Scattered clouds at a height of 1500 ft

TAF: EGXP 131050Z 1312/1318 23008KT 9999 FEW015 PROB30 TEMPO 1312/1314 SCT013 PROB30 TEMPO 1314/1317 SCT015

Weather observations and forecasts of more than 4000 airports (METAR and TAF reports).

The available stations are represented by yellow and red dots on the map.

Hover mouse over dot to see the name of the station.

Then click to see weather observations and forecasts.

To change the map : click on the green buttons with a black cross to zoom in, on the green button with a dash to zoom out, or on the green arrows for adjacent maps.


METAR-TAF: